Frank, North Carolina
Current Conditions -  °F | °C
As of 12:15 AM on Saturday 22 Nov 2014 (Local Time) from KTNB Reporting Station
Clear Clear  
Wind Chill: 20°   Ceiling: Unl
Heat Index: 20°   Visibility: 10mi
Dew Point: 13°   Wind: 0mph
Humidity: 72%   Direction: NA
Pressure: 30.45"   Gusts: NA
Location:  36.0227°N, 81.9499°W
Report Text: KTNB 220515Z AUTO 00000KT 10SM CLR M06/M11 A3045 RMK AO2 T10651108
Loading
Personal Weather Stations






























Interactive Weather Map New forecast layout! Learn more

10-Day Weather Forecast

Advertisements
Track Severe Weather on mobile